KMKL/MKL METAR and TAF weather

Enter ICAO airport designator
Station Type Date Time Source
KMKL METAR 2019/10/23 20:53 UTC NOAA

KMKL 232053Z 20008KT 10SM CLR 21/03 A3014 RMK AO2 SLP204 T02110033 56015


Station Type Date Time Source
KMKL Decoded METAR 2019/10/23 20:53 UTC NOAA

JACKSON MCKELLAR-SIPES RGNL, TN, United States (KMKL) 35-36N 088-55W 128M
Oct 23, 2019 - 04:53 PM EDT / 2019.10.23 2053 UTC
Wind: from the SSW (200 degrees) at 9 MPH (8 KT):0
Visibility: 10 mile(s):0
Sky conditions: clear
Temperature: 70.0 F (21.1 C)
Dew Point: 37.9 F (3.3 C)
Relative Humidity: 30%
Pressure (altimeter): 30.14 in. Hg (1020 hPa)
Pressure tendency: 0.04 inches (1.5 hPa) lower than three hours ago
ob: KMKL 232053Z 20008KT 10SM CLR 21/03 A3014 RMK AO2 SLP204 T02110033 56015
cycle: 21

Station Type Date Time Source
KMKL TAF 2019/10/23 18:22 UTC NOAA

TAF KMKL 231720Z 2318/2418 19008KT P6SM SKC
FM240000 16003KT P6SM SKC

Example: see airport list